SBOSBO ABZ / EGPD
Speedbird OnlineSpeedbird Online ABZ / EGPD

Aberdeen Dyce Airport
09:28 11.7°C

Location Aberdeen, United Kingdom
Latitude: 57.201900482177734
Longitude: -2.197779893875122
Web Airport Website | Wikipedia
Altitude 66 Meter / 215 Feet
Distance 650 KM / 404 Miles
from London.
Time Zone UTC +1 hours (Europe/London)
Codes IATA: ABZ
ICAO: EGPD
Runways
RunwayLength (m)Surface
05577Concrete
14660Asphalt
161953Asphalt
18260Asphalt
23577Concrete
32660Asphalt
341953Asphalt
36260Asphalt
Radio
TypeDescriptionFrequency
APPABERDEEN APP119.055
ATISABERDEEN ATIS121.855
GNDABERDEEN GND121.705
INFOABERDEEN INFO135.175
RADARAberdeen Director128.305
RDRAberdeen Offshore Radar134.1
TWRABERDEEN TWR118.105
Live ATC
METAR EGPD 060750Z AUTO 22007KT 9999 NCD 11/05 Q1008 NOSIG
TAF TAF EGPD 060457Z 0606/0706 21009KT 9999 FEW030 PROB30 TEMPO 0609/0615 23015G25KT PROB30 TEMPO 0621/0624 20015G25KT 7000 -RA BKN014 PROB40 TEMPO 0700/0703 21016G28KT 4000 SHRA BKN014
Weather As Of 06 Oct 2022 09:28
Description Few clouds
Wind 13 km/h from South-West (220°)
Cloud Cover 15%
Precipitation Rain: none, Snow: none
Sunrise 07:22
Sunset 18:31
Lounges British Airways Lounge (Open), Main Terminal
Rotations During the last 90 days there were
254 flights from LHR
1 flights from ABZ
256 flights to LHR
1 flights to ABZ


© 2017-2022 Speedbird Online